Time,TemperatureF,DewpointF,PressureIn,WindDirection,WindDirectionDegrees,WindSpeedMPH,WindSpeedGustMPH,Humidity,HourlyPrecipIn,Conditions,Clouds,dailyrainin,SoftwareType,DateUTC
2013-06-28 00:00:00,67.0,-99.9,29.72,SW,230,12.0,-999.0,-999,-99.99,,,-99.99,,2013-06-28 04:00:00,
2013-06-28 00:33:00,67.0,-99.9,29.72,SW,230,12.0,-999.0,-999,-99.99,,,-99.99,,2013-06-28 04:33:00,
2013-06-28 00:43:00,67.0,-99.9,29.72,SW,230,12.0,-999.0,-999,-99.99,,,-99.99,,2013-06-28 04:43:00,
2013-06-28 00:53:00,67.0,-99.9,29.72,SW,230,12.0,-999.0,-999,-99.99,,,-99.99,,2013-06-28 04:53:00,
2013-06-28 01:00:00,68.0,-99.9,29.75,WSW,240,8.0,-999.0,-999,-99.99,,,-99.99,,2013-06-28 05:00:00,
2013-06-28 01:33:00,68.0,-99.9,29.75,WSW,240,8.0,-999.0,-999,-99.99,,,-99.99,,2013-06-28 05:33:00,
2013-06-28 01:43:00,68.0,-99.9,29.75,WSW,240,8.0,-999.0,-999,-99.99,,,-99.99,,2013-06-28 05:43:00,
2013-06-28 01:53:00,68.0,-99.9,29.75,WSW,240,8.0,-999.0,-999,-99.99,,,-99.99,,2013-06-28 05:53:00,
2013-06-28 06:00:00,68.0,-99.9,29.71,WNW,300,10.0,-999.0,-999,-99.99,,,-99.99,,2013-06-28 10:00:00,
2013-06-28 06:33:00,68.0,-99.9,29.71,WNW,300,10.0,-999.0,-999,-99.99,,,-99.99,,2013-06-28 10:33:00,
2013-06-28 06:42:00,68.0,-99.9,29.71,WNW,300,10.0,-999.0,-999,-99.99,,,-99.99,,2013-06-28 10:42:00,
2013-06-28 06:52:00,68.0,-99.9,29.71,WNW,300,10.0,-999.0,-999,-99.99,,,-99.99,,2013-06-28 10:52:00,
2013-06-28 07:00:00,67.0,-99.9,29.73,West,280,8.0,-999.0,-999,-99.99,,,-99.99,,2013-06-28 11:00:00,
2013-06-28 07:34:00,67.0,-99.9,29.73,West,280,8.0,-999.0,-999,-99.99,,,-99.99,,2013-06-28 11:34:00,
2013-06-28 07:43:00,67.0,-99.9,29.73,West,280,8.0,-999.0,-999,-99.99,,,-99.99,,2013-06-28 11:43:00,
2013-06-28 07:53:00,67.0,-99.9,29.73,West,280,8.0,-999.0,-999,-99.99,,,-99.99,,2013-06-28 11:53:00,
2013-06-28 08:00:00,67.0,-99.9,29.72,NNW,340,7.0,-999.0,-999,-99.99,,,-99.99,,2013-06-28 12:00:00,
2013-06-28 08:34:00,67.0,-99.9,29.72,NNW,340,7.0,-999.0,-999,-99.99,,,-99.99,,2013-06-28 12:34:00,
2013-06-28 08:43:00,67.0,-99.9,29.72,NNW,340,7.0,-999.0,-999,-99.99,,,-99.99,,2013-06-28 12:43:00,
2013-06-28 08:52:00,67.0,-99.9,29.72,NNW,340,7.0,-999.0,-999,-99.99,,,-99.99,,2013-06-28 12:52:00,
2013-06-28 10:00:00,67.0,-99.9,29.74,WNW,290,8.0,-999.0,-999,-99.99,,,-99.99,,2013-06-28 14:00:00,
2013-06-28 10:33:00,67.0,-99.9,29.74,WNW,290,8.0,-999.0,-999,-99.99,,,-99.99,,2013-06-28 14:33:00,
2013-06-28 10:44:00,67.0,-99.9,29.74,WNW,290,8.0,-999.0,-999,-99.99,,,-99.99,,2013-06-28 14:44:00,
2013-06-28 10:53:00,67.0,-99.9,29.74,WNW,290,8.0,-999.0,-999,-99.99,,,-99.99,,2013-06-28 14:53:00,
2013-06-28 11:00:00,70.0,-99.9,29.73,NW,310,15.0,-999.0,-999,-99.99,,,-99.99,,2013-06-28 15:00:00,
2013-06-28 11:34:00,70.0,-99.9,29.73,NW,310,15.0,-999.0,-999,-99.99,,,-99.99,,2013-06-28 15:34:00,
2013-06-28 11:43:00,70.0,-99.9,29.73,NW,310,15.0,-999.0,-999,-99.99,,,-99.99,,2013-06-28 15:43:00,
2013-06-28 11:52:00,70.0,-99.9,29.73,NW,310,15.0,-999.0,-999,-99.99,,,-99.99,,2013-06-28 15:52:00,
2013-06-28 12:00:00,67.0,-99.9,29.73,NNW,330,20.0,-999.0,-999,-99.99,,,-99.99,,2013-06-28 16:00:00,
2013-06-28 12:33:00,67.0,-99.9,29.73,NNW,330,20.0,-999.0,-999,-99.99,,,-99.99,,2013-06-28 16:33:00,
2013-06-28 12:44:00,67.0,-99.9,29.73,NNW,330,20.0,-999.0,-999,-99.99,,,-99.99,,2013-06-28 16:44:00,
2013-06-28 12:53:00,67.0,-99.9,29.73,NNW,330,20.0,-999.0,-999,-99.99,,,-99.99,,2013-06-28 16:53:00,